Time;durP1;ratioP1;P1;durP2;ratioP2;P2;SDS_P1;SDS_P2;PMS_P1;PMS_P2;Temp;Humidity;BMP_temperature;BMP_pressure;BME280_temperature;BME280_humidity;BME280_pressure;Samples;Min_cycle;Max_cycle;Signal;HPM_P1;HPM_P2
2022/02/03 00:00:17;;;;;;;18.45;14.18;;;;;;;;;;7326607;19;154244;-15
2022/02/03 00:02:55;;;;;;;;;;;;;;;;;;7333250;19;153799;-15
2022/02/03 08:39:26;;;;;;;5.03;3.90;;;;;;;;;;7370738;19;132570;-20
2022/02/03 08:41:59;;;;;;;7.05;3.45;;;;;;;;;;7364669;19;153711;-18
2022/02/03 08:44:30;;;;;;;4.05;3.28;;;;;;;;;;7366373;19;161758;-18
2022/02/03 08:47:02;;;;;;;6.03;3.30;;;;;;;;;;7363863;19;162343;-18
2022/02/03 08:49:34;;;;;;;3.90;3.17;;;;;;;;;;7364700;19;153870;-18
2022/02/03 08:52:15;;;;;;;4.30;3.42;;;;;;;;;;7364524;19;153588;-19
2022/02/03 08:55:01;;;;;;;3.83;3.20;;;;;;;;;;7364046;19;161949;-19
2022/02/03 08:57:43;;;;;;;4.35;3.38;;;;;;;;;;7363968;19;162644;-19
2022/02/03 09:39:08;;;;;;;4.28;3.25;;;;;;;;;;7347726;19;162112;-18
2022/02/03 09:53:23;;;;;;;3.38;2.83;;;;;;;;;;7333080;19;162374;-17
2022/02/03 09:56:09;;;;;;;4.22;3.05;;;;;;;;;;7334886;19;153951;-18
2022/02/03 09:58:54;;;;;;;2.88;2.63;;;;;;;;;;7332626;19;153524;-18
2022/02/03 10:01:44;;;;;;;4.57;2.85;;;;;;;;;;7333138;19;161672;-16
2022/02/03 10:04:20;;;;;;;3.28;2.97;;;;;;;;;;7333143;19;162330;-18
2022/02/03 10:06:58;;;;;;;4.82;2.97;;;;;;;;;;7330404;19;154089;-18
2022/02/03 10:09:40;;;;;;;3.45;2.60;;;;;;;;;;7329170;19;153794;-19
2022/02/03 10:12:13;;;;;;;3.97;2.55;;;;;;;;;;7332840;19;162031;-18
2022/02/03 10:14:46;;;;;;;5.53;3.60;;;;;;;;;;7335343;19;162550;-17
2022/02/03 10:17:20;;;;;;;3.05;2.75;;;;;;;;;;7333221;19;153960;-18
2022/02/03 10:20:03;;;;;;;3.45;2.85;;;;;;;;;;7333275;19;153517;-17
2022/02/03 10:22:34;;;;;;;3.05;2.75;;;;;;;;;;7331720;19;161998;-17
2022/02/03 10:25:12;;;;;;;3.55;2.90;;;;;;;;;;7332814;19;162548;-16
2022/02/03 10:27:50;;;;;;;3.85;2.83;;;;;;;;;;7332745;19;154048;-17
2022/02/03 10:30:26;;;;;;;3.67;2.58;;;;;;;;;;7336424;19;153881;-18
2022/02/03 10:33:00;;;;;;;4.70;3.10;;;;;;;;;;7331267;19;161879;-18
2022/02/03 10:35:37;;;;;;;3.50;2.70;;;;;;;;;;7332257;19;162535;-16
2022/02/03 10:52:57;;;;;;;4.38;3.00;;;;;;;;;;7333776;19;153550;-16
2022/02/03 10:55:42;;;;;;;2.83;2.30;;;;;;;;;;7333612;19;162147;-17
2022/02/03 10:58:29;;;;;;;4.00;2.50;;;;;;;;;;7335188;19;162514;-17
2022/02/03 11:01:23;;;;;;;3.60;2.88;;;;;;;;;;7332022;19;154437;-16
2022/02/03 11:04:12;;;;;;;3.65;2.70;;;;;;;;;;7334666;19;154095;-17
2022/02/03 11:06:56;;;;;;;3.13;2.67;;;;;;;;;;7335360;19;161872;-17
2022/02/03 11:09:40;;;;;;;3.10;2.47;;;;;;;;;;7330799;19;162538;-17
2022/02/03 11:12:17;;;;;;;2.58;2.38;;;;;;;;;;7335526;19;153909;-16
2022/02/03 11:14:48;;;;;;;3.45;2.95;;;;;;;;;;7334966;19;153527;-17
2022/02/03 11:17:20;;;;;;;2.75;2.55;;;;;;;;;;7332757;19;161800;-16
2022/02/03 11:19:55;;;;;;;2.60;2.27;;;;;;;;;;7332914;19;162455;-18
2022/02/03 11:22:43;;;;;;;2.63;2.33;;;;;;;;;;7335133;19;153944;-17
2022/02/03 11:25:21;;;;;;;3.83;2.47;;;;;;;;;;7332657;19;153666;-17
2022/02/03 11:28:14;;;;;;;2.45;2.22;;;;;;;;;;7332746;19;161869;-17
2022/02/03 11:31:08;;;;;;;2.78;2.58;;;;;;;;;;7335099;19;162453;-16
2022/02/03 11:51:12;;;;;;;2.83;2.40;;;;;;;;;;7330215;19;161899;-17
2022/02/03 12:00:23;;;;;;;2.65;2.45;;;;;;;;;;7331780;19;153526;-17
2022/02/03 12:20:25;;;;;;;4.38;2.88;;;;;;;;;;7329995;19;154099;-18
2022/02/03 12:23:21;;;;;;;3.08;2.42;;;;;;;;;;7329816;19;153785;-18
2022/02/03 12:26:02;;;;;;;3.00;2.70;;;;;;;;;;7329676;19;162146;-17
2022/02/03 12:28:47;;;;;;;2.60;2.08;;;;;;;;;;7329575;19;162539;-17
2022/02/03 12:39:48;;;;;;;2.08;1.95;;;;;;;;;;7327346;19;162353;-17
2022/02/03 12:42:30;;;;;;;3.00;2.78;;;;;;;;;;7330862;19;153956;-16
2022/02/03 12:45:15;;;;;;;3.00;2.73;;;;;;;;;;7331297;19;153624;-17
2022/02/03 12:47:51;;;;;;;1.92;1.75;;;;;;;;;;7331748;19;161784;-17
2022/02/03 12:50:25;;;;;;;2.60;1.98;;;;;;;;;;7331103;19;162520;-17
2022/02/03 12:52:58;;;;;;;2.00;1.80;;;;;;;;;;7330514;19;154066;-17
2022/02/03 12:55:33;;;;;;;2.53;2.33;;;;;;;;;;7331383;19;153548;-17
2022/02/03 12:58:09;;;;;;;2.42;2.13;;;;;;;;;;7332040;19;161994;-18
2022/02/03 13:00:46;;;;;;;3.17;2.55;;;;;;;;;;7332322;19;162360;-16
2022/02/03 13:03:31;;;;;;;2.55;2.25;;;;;;;;;;7331167;19;154101;-17
2022/02/03 13:06:05;;;;;;;2.28;2.08;;;;;;;;;;7332230;19;153622;-17
2022/02/03 13:08:39;;;;;;;2.65;1.95;;;;;;;;;;7328881;19;161832;-16
2022/02/03 13:11:19;;;;;;;2.40;2.20;;;;;;;;;;7328243;19;162523;-17
2022/02/03 13:14:04;;;;;;;3.25;2.10;;;;;;;;;;7332366;19;154150;-17
2022/02/03 13:16:36;;;;;;;2.42;2.17;;;;;;;;;;7332933;19;153554;-17
2022/02/03 13:19:16;;;;;;;2.72;1.85;;;;;;;;;;7335628;19;162030;-17
2022/02/03 13:22:09;;;;;;;2.13;2.03;;;;;;;;;;7329621;19;162441;-16
2022/02/03 13:25:07;;;;;;;2.72;1.95;;;;;;;;;;7338088;19;154030;-16
2022/02/03 13:27:49;;;;;;;2.72;2.20;;;;;;;;;;7337430;19;153594;-17
2022/02/03 13:30:42;;;;;;;2.70;2.40;;;;;;;;;;7332777;19;161960;-17
2022/02/03 13:33:14;;;;;;;3.50;2.63;;;;;;;;;;7336247;19;162355;-17
2022/02/03 13:35:54;;;;;;;3.85;2.40;;;;;;;;;;7334691;19;154079;-17
2022/02/03 13:38:37;;;;;;;3.28;2.60;;;;;;;;;;7334200;19;153726;-17
2022/02/03 13:41:15;;;;;;;2.78;2.58;;;;;;;;;;7336344;19;161939;-18
2022/02/03 13:43:48;;;;;;;5.15;2.30;;;;;;;;;;7336564;19;162321;-17
2022/02/03 13:46:29;;;;;;;3.28;2.33;;;;;;;;;;7334622;19;153984;-17
2022/02/03 13:49:01;;;;;;;3.92;2.58;;;;;;;;;;7335882;19;154067;-16
2022/02/03 13:51:38;;;;;;;3.00;2.28;;;;;;;;;;7333158;19;161829;-16
2022/02/03 13:54:21;;;;;;;2.47;2.28;;;;;;;;;;7333494;19;162512;-16
2022/02/03 14:11:59;;;;;;;3.70;2.53;;;;;;;;;;7333121;19;153584;-16
2022/02/03 14:22:14;;;;;;;2.10;1.90;;;;;;;;;;7336091;19;153509;-16
2022/02/03 14:27:43;;;;;;;2.25;2.05;;;;;;;;;;7330980;19;162437;-18
2022/02/03 14:30:18;;;;;;;;;;;;;;;;;;7326821;19;154295;-17
2022/02/03 14:32:55;;;;;;;4.22;2.20;;;;;;;;;;7328906;19;153479;-17
2022/02/03 14:35:29;;;;;;;2.97;2.50;;;;;;;;;;7329185;19;161855;-16
2022/02/03 14:38:13;;;;;;;2.17;1.98;;;;;;;;;;7334282;19;162345;-16
2022/02/03 14:40:58;;;;;;;2.22;1.90;;;;;;;;;;7332099;19;153918;-17
2022/02/03 14:43:30;;;;;;;2.75;2.10;;;;;;;;;;7326584;19;153620;-17
2022/02/03 14:46:16;;;;;;;2.63;2.38;;;;;;;;;;7330020;19;161981;-19
2022/02/03 14:48:49;;;;;;;3.17;2.10;;;;;;;;;;6449739;19;10000411;-18
2022/02/03 14:51:25;;;;;;;2.92;2.60;;;;;;;;;;5303278;19;167851;-16
2022/02/03 14:57:59;;;;;;;3.05;2.05;;;;;;;;;;6928525;19;154432;-16
2022/02/03 14:59:35;;;;;;;3.58;2.48;;;;;;;;;;3366226;19;20001494;-18
2022/02/03 15:02:08;;;;;;;4.57;2.30;;;;;;;;;;2289126;19;20005317;-18
2022/02/03 15:04:43;;;;;;;3.32;3.00;;;;;;;;;;1319531;19;10005592;-16
2022/02/03 15:07:14;;;;;;;2.90;2.33;;;;;;;;;;7329395;19;158742;-17
2022/02/03 15:12:57;;;;;;;3.95;2.60;;;;;;;;;;7325876;19;164109;-18
2022/02/03 15:15:29;;;;;;;2.90;2.25;;;;;;;;;;7328915;19;154227;-17
2022/02/03 15:18:02;;;;;;;3.35;2.05;;;;;;;;;;7328706;19;154218;-18
2022/02/03 15:20:34;;;;;;;3.25;2.20;;;;;;;;;;7331942;19;161696;-18
2022/02/03 15:23:06;;;;;;;2.88;2.38;;;;;;;;;;7333137;19;162394;-17
2022/02/03 15:25:38;;;;;;;4.40;2.60;;;;;;;;;;7329924;19;154196;-18
2022/02/03 15:28:12;;;;;;;2.83;2.05;;;;;;;;;;7333761;19;153955;-16
2022/02/03 15:30:43;;;;;;;3.88;2.38;;;;;;;;;;7328122;19;161992;-17
2022/02/03 15:33:16;;;;;;;4.18;2.10;;;;;;;;;;7326678;19;162353;-17
2022/02/03 15:35:50;;;;;;;2.97;2.30;;;;;;;;;;7331618;19;154026;-16
2022/02/03 15:38:23;;;;;;;2.65;2.20;;;;;;;;;;7327640;19;153559;-18
2022/02/03 15:40:56;;;;;;;3.25;2.20;;;;;;;;;;7330230;19;162223;-17
2022/02/03 15:43:38;;;;;;;4.53;2.15;;;;;;;;;;7326917;19;162360;-16
2022/02/03 15:46:12;;;;;;;3.45;1.92;;;;;;;;;;7329177;19;153699;-17
2022/02/03 15:48:49;;;;;;;9.52;1.92;;;;;;;;;;7329243;19;153704;-18
2022/02/03 15:57:06;;;;;;;3.17;1.95;;;;;;;;;;7330119;19;154140;-17
2022/02/03 16:02:51;;;;;;;3.17;2.47;;;;;;;;;;7327886;19;162126;-16
2022/02/03 16:14:01;;;;;;;2.22;2.03;;;;;;;;;;7329424;19;161997;-16
2022/02/03 16:19:38;;;;;;;2.67;2.20;;;;;;;;;;7326581;19;154006;-17
2022/02/03 16:22:20;;;;;;;3.42;2.47;;;;;;;;;;7328857;19;153726;-16
2022/02/03 16:24:57;;;;;;;3.00;2.13;;;;;;;;;;7329133;19;161854;-15
2022/02/03 16:41:57;;;;;;;2.88;2.00;;;;;;;;;;7329363;19;153915;-18
2022/02/03 16:52:44;;;;;;;2.72;2.00;;;;;;;;;;7333722;19;154107;-17
2022/02/03 16:55:16;;;;;;;2.80;2.17;;;;;;;;;;7335749;19;153712;-16
2022/02/03 16:57:49;;;;;;;2.72;2.00;;;;;;;;;;7334900;19;161790;-17
2022/02/03 17:00:21;;;;;;;1.67;1.50;;;;;;;;;;7334073;19;162692;-17
2022/02/03 17:03:00;;;;;;;3.15;1.88;;;;;;;;;;7335905;19;154253;-17
2022/02/03 17:05:37;;;;;;;2.67;1.77;;;;;;;;;;7335744;19;153493;-18
2022/02/03 17:08:09;;;;;;;2.08;1.95;;;;;;;;;;7335057;19;161999;-17
2022/02/03 17:10:40;;;;;;;2.20;1.90;;;;;;;;;;7335100;19;162361;-18
2022/02/03 17:13:12;;;;;;;2.80;1.90;;;;;;;;;;7333798;19;154249;-17
2022/02/03 17:15:44;;;;;;;2.13;1.83;;;;;;;;;;7335619;19;153552;-18
2022/02/03 17:18:16;;;;;;;2.85;1.95;;;;;;;;;;7334915;19;162459;-18
2022/02/03 17:20:50;;;;;;;2.10;1.90;;;;;;;;;;7333469;19;162590;-18
2022/02/03 17:23:23;;;;;;;1.80;1.67;;;;;;;;;;7335194;19;154367;-17
2022/02/03 17:26:05;;;;;;;2.03;1.90;;;;;;;;;;7334821;19;153572;-17
2022/02/03 17:28:45;;;;;;;3.28;1.95;;;;;;;;;;7334594;19;161812;-17
2022/02/03 17:31:23;;;;;;;2.00;1.80;;;;;;;;;;7334270;19;162403;-18
2022/02/03 18:09:44;;;;;;;1.70;1.52;;;;;;;;;;7332734;19;153486;-18
2022/02/03 18:32:04;;;;;;;2.50;2.30;;;;;;;;;;7332150;19;153578;-18
2022/02/03 18:35:04;;;;;;;2.58;2.35;;;;;;;;;;7330050;19;162040;-17
2022/02/03 18:45:44;;;;;;;2.75;2.28;;;;;;;;;;7331611;19;162541;-17
2022/02/03 18:51:34;;;;;;;3.05;2.30;;;;;;;;;;7334143;19;154213;-18
2022/02/03 18:54:15;;;;;;;2.58;2.20;;;;;;;;;;7332939;19;153507;-17
2022/02/03 18:56:49;;;;;;;3.28;2.20;;;;;;;;;;7331508;19;161991;-16
2022/02/03 18:59:49;;;;;;;2.55;2.30;;;;;;;;;;7336032;19;162350;-18
2022/02/03 19:02:53;;;;;;;2.03;1.92;;;;;;;;;;7330488;19;154024;-16
2022/02/03 19:25:04;;;;;;;;;;;;;;;;;;7330550;19;154467;-15
2022/02/03 20:06:25;;;;;;;3.08;2.75;;;;;;;;;;7328133;19;162839;-19
2022/02/03 20:09:03;;;;;;;5.60;2.92;;;;;;;;;;7329976;19;154343;-17
2022/02/03 20:11:36;;;;;;;3.25;2.95;;;;;;;;;;7330078;19;153764;-18
2022/02/03 20:14:12;;;;;;;3.85;2.53;;;;;;;;;;7328333;19;161946;-19
2022/02/03 20:16:46;;;;;;;2.63;2.42;;;;;;;;;;7328489;19;162613;-19
2022/02/03 20:19:19;;;;;;;4.28;3.00;;;;;;;;;;7330458;19;154060;-18
2022/02/03 20:21:53;;;;;;;5.20;4.15;;;;;;;;;;7327919;19;153557;-17
2022/02/03 20:24:25;;;;;;;7.00;4.47;;;;;;;;;;7328588;19;161776;-18
2022/02/03 20:26:57;;;;;;;5.13;4.18;;;;;;;;;;7328472;19;162558;-18
2022/02/03 20:29:28;;;;;;;6.20;4.15;;;;;;;;;;7328267;19;154169;-18
2022/02/03 20:31:59;;;;;;;6.07;3.85;;;;;;;;;;7330447;19;153547;-16
2022/02/03 20:34:31;;;;;;;5.85;3.78;;;;;;;;;;7326551;19;163174;-18
2022/02/03 20:37:05;;;;;;;3.92;3.53;;;;;;;;;;7328724;19;162334;-17
2022/02/03 20:39:38;;;;;;;10.02;3.75;;;;;;;;;;7332321;19;154157;-16
2022/02/03 20:42:11;;;;;;;5.85;3.67;;;;;;;;;;7331902;19;153661;-17
2022/02/03 20:44:43;;;;;;;3.88;3.45;;;;;;;;;;7327906;19;161784;-16
2022/02/03 20:47:15;;;;;;;4.22;3.67;;;;;;;;;;7330403;19;162366;-17
2022/02/03 20:49:46;;;;;;;5.32;3.38;;;;;;;;;;7328328;19;154065;-17
2022/02/03 20:52:21;;;;;;;4.18;3.60;;;;;;;;;;7327160;19;153584;-16
2022/02/03 20:54:52;;;;;;;5.25;3.28;;;;;;;;;;7328638;19;161616;-17
2022/02/03 20:57:25;;;;;;;4.82;3.70;;;;;;;;;;7326260;19;162475;-17
2022/02/03 21:00:10;;;;;;;4.28;3.30;;;;;;;;;;7328017;19;154158;-18
2022/02/03 21:02:48;;;;;;;4.38;3.42;;;;;;;;;;7331345;19;153514;-18
2022/02/03 21:05:19;;;;;;;4.30;3.13;;;;;;;;;;7327607;19;161578;-18
2022/02/03 21:07:54;;;;;;;4.45;3.45;;;;;;;;;;7326744;19;162383;-16
2022/02/03 21:10:30;;;;;;;4.30;3.38;;;;;;;;;;7331177;19;154016;-17
2022/02/03 21:13:01;;;;;;;5.47;3.33;;;;;;;;;;7327974;19;153683;-16
2022/02/03 21:15:36;;;;;;;6.53;3.13;;;;;;;;;;7325581;19;161783;-17
2022/02/03 21:18:11;;;;;;;4.65;3.88;;;;;;;;;;7330587;19;162300;-17
2022/02/03 21:20:44;;;;;;;5.80;3.45;;;;;;;;;;7326577;19;153980;-16
2022/02/03 21:23:18;;;;;;;4.38;3.05;;;;;;;;;;7327761;19;154012;-16
2022/02/03 21:25:54;;;;;;;4.38;3.00;;;;;;;;;;7327545;19;161910;-16
2022/02/03 21:28:29;;;;;;;3.95;3.38;;;;;;;;;;7327290;19;162237;-17
2022/02/03 21:31:02;;;;;;;4.20;3.28;;;;;;;;;;7327412;19;154049;-16
2022/02/03 21:33:46;;;;;;;3.00;2.80;;;;;;;;;;7327367;19;153653;-17
2022/02/03 21:36:20;;;;;;;4.28;3.40;;;;;;;;;;7329690;19;161818;-15
2022/02/03 21:38:54;;;;;;;5.18;3.38;;;;;;;;;;7331819;19;162537;-18
2022/02/03 21:41:25;;;;;;;4.70;3.13;;;;;;;;;;7335675;19;153751;-17
2022/02/03 21:43:57;;;;;;;3.95;2.90;;;;;;;;;;7337172;19;153870;-17
2022/02/03 21:46:28;;;;;;;4.30;2.92;;;;;;;;;;7334370;19;161964;-18
2022/02/03 21:49:00;;;;;;;4.13;3.15;;;;;;;;;;7333699;19;162528;-19
2022/02/03 21:51:35;;;;;;;4.28;3.47;;;;;;;;;;7333879;19;155160;-17
2022/02/03 21:54:11;;;;;;;4.30;3.35;;;;;;;;;;7333952;19;153659;-17
2022/02/03 21:56:44;;;;;;;4.63;3.45;;;;;;;;;;7333460;19;161794;-18
2022/02/03 21:59:15;;;;;;;3.90;3.25;;;;;;;;;;7333234;19;162355;-18
2022/02/03 22:01:47;;;;;;;4.10;3.20;;;;;;;;;;7335250;19;154234;-18
2022/02/03 22:04:18;;;;;;;4.05;2.80;;;;;;;;;;7332433;19;153611;-17
2022/02/03 22:06:49;;;;;;;6.00;3.72;;;;;;;;;;7331956;19;161837;-18
2022/02/03 22:09:23;;;;;;;10.57;3.90;;;;;;;;;;7333201;19;162832;-17
2022/02/03 22:11:55;;;;;;;5.10;3.10;;;;;;;;;;7333424;19;153905;-17
2022/02/03 22:14:26;;;;;;;3.90;3.47;;;;;;;;;;7333044;19;153618;-17
2022/02/03 22:16:58;;;;;;;3.97;2.92;;;;;;;;;;7334857;19;161829;-16
2022/02/03 22:19:31;;;;;;;5.32;3.50;;;;;;;;;;7332828;19;162581;-17
2022/02/03 22:22:12;;;;;;;8.40;3.30;;;;;;;;;;7332046;19;154058;-15
2022/02/03 22:25:04;;;;;;;4.50;3.05;;;;;;;;;;7332924;19;153510;-16
2022/02/03 22:27:54;;;;;;;3.85;2.65;;;;;;;;;;7334942;19;161756;-17
2022/02/03 22:38:57;;;;;;;3.95;3.10;;;;;;;;;;7334453;19;162139;-16
2022/02/03 22:44:24;;;;;;;3.97;3.13;;;;;;;;;;7332726;19;154004;-17
2022/02/03 22:49:39;;;;;;;3.15;2.92;;;;;;;;;;7331990;19;161970;-16
2022/02/03 22:52:11;;;;;;;4.07;3.13;;;;;;;;;;7331809;19;162401;-16
2022/02/03 22:54:42;;;;;;;3.80;3.35;;;;;;;;;;7332322;19;154038;-16
2022/02/03 22:57:16;;;;;;;3.20;2.90;;;;;;;;;;7332466;19;153615;-16
2022/02/03 23:02:31;;;;;;;;;;;;;;;;;;7333974;19;162484;-16
2022/02/03 23:05:02;;;;;;;2.97;2.78;;;;;;;;;;7332279;19;154160;-17
2022/02/03 23:07:53;;;;;;;3.35;3.00;;;;;;;;;;7330694;19;153552;-16
2022/02/03 23:10:41;;;;;;;3.95;2.83;;;;;;;;;;7331478;19;162046;-16
2022/02/03 23:13:25;;;;;;;2.97;2.65;;;;;;;;;;7333845;19;162660;-16
2022/02/03 23:16:05;;;;;;;3.30;2.90;;;;;;;;;;7334393;19;154035;-17
2022/02/03 23:18:52;;;;;;;3.83;2.92;;;;;;;;;;7330499;19;153527;-17
2022/02/03 23:21:44;;;;;;;5.30;3.88;;;;;;;;;;7331699;19;162100;-17
2022/02/03 23:24:18;;;;;;;5.63;3.72;;;;;;;;;;7330372;19;162149;-18
2022/02/03 23:27:00;;;;;;;3.78;3.40;;;;;;;;;;7333590;19;154777;-17
2022/02/03 23:29:38;;;;;;;4.53;3.40;;;;;;;;;;7330668;19;153563;-17
2022/02/03 23:32:11;;;;;;;4.82;3.58;;;;;;;;;;7330996;19;161793;-18
2022/02/03 23:34:47;;;;;;;5.28;3.30;;;;;;;;;;7330701;19;162519;-17
